Historyczne dane pomiarowe

Dodano dane terminowe – wersja testowa.

Dane z okresu 1951-2019

Wersja bazy: 1.34 [2019-03-16, lista zmian], aktualizacja planowana na 2019-04-15

Dane meteo z obszaru Polski uzyskane na podstawie danych udostępnionych przez Instytut Meteorologii i Gospodarki Wodnej – Państwowy Instytut Badawczy.

 

Wybierz Datę:    

       

TemperaturaWilgotnośćWiatrCiśnienieOpadyŚniegCzas trwania zjawisk
 Stacja t tx tn tng RH VA  wxwx mslp ppp RRR   cm mm wxwxwxwxwxwxwx
1999-08-14 16.3 23.0 10.8 10.3 61.8- 3.3 1.7---- 0.0------------
1999-08-13 14.0 21.5 6.9 5.1 71.3- 7.0 3.0---- 0.0------------
1999-08-12 18.2 25.0 12.6 10.8 68.0- 7.0 4.0---- 0.0------------
1999-08-11 19.7 25.5 14.9 14.9 75.5- 6.0 4.0---- 0.0------------
1999-08-10 19.6 26.8 13.3 12.8 80.0- 5.0 2.3---- 3.0------------
1999-08-09 22.5 31.5 17.4 15.9 74.0- 3.7 2.3---- 2.5------------
1999-08-08 21.7 27.0 16.5 15.9 74.0- 5.0 1.7---- 0.0------------
1999-08-07 21.0 30.1 12.4 11.6 73.8- 5.3 1.0---- 2.9------------
1999-08-06 21.2 28.1 13.7 12.5 72.3- 3.0 2.0---- 0.0------------
1999-08-05 18.7 26.6 9.4 6.2 64.8- 4.3 1.3---- 0.7------------
1999-08-04 17.4 25.3 8.4 8.2 66.0- 4.3 1.0---- 0.0------------
1999-08-03 16.4 23.1 9.4 6.2 67.8- 5.3 1.0---- 0.0------------
1999-08-02 17.3 23.5 9.8 9.8 71.0- 4.0 1.3---- 0.0------------
1999-08-01 17.2 24.5 10.6 5.1 69.8- 4.0 1.7---- 0.5------------
1999-07-31 18.8 26.6 8.4 4.6 56.5- 4.0 2.3---- 0.0------------
1999-07-30 18.0 25.6 8.3 4.5 57.8- 2.0 2.0---- 0.0------------
1999-07-29 18.1 24.7 10.8 9.8 65.3- 4.0 3.0---- 0.0------------
1999-07-28 18.8 25.7 12.5 11.8 73.0- 4.0 3.0---- 0.0------------
1999-07-27 20.2 24.2 15.5 14.9 73.0- 5.7 3.3---- 0.0------------
1999-07-26 19.7 27.2 13.2 12.5 70.3- 4.0 2.0---- 0.0------------
1999-07-25 17.9 24.8 11.5 10.3 70.3- 2.0 1.0---- 0.0------------
1999-07-24 17.1 21.6 12.8 11.4 74.3- 6.0 2.0---- 0.0------------
1999-07-23 16.0 20.1 13.3 13.0 81.3- 8.0 1.7---- 2.5------------
1999-07-22 19.6 24.5 16.4 11.4 67.8- 6.0 3.3---- 0.7------------
1999-07-21 22.8 28.5 17.9 16.1 68.5- 5.0 1.3---- 0.4------------
1999-07-20 21.9 29.0 12.8 12.3 55.3- 2.3 1.3---- 0.0------------
1999-07-19 20.0 28.0 10.8 7.7 72.0- 2.7 0.0---- 0.0------------
1999-07-18 18.4 26.5 9.6 9.3 47.5- 2.0 0.0---- 0.0------------
1999-07-17 17.4 24.5 10.2 9.8 69.0- 4.0 2.0---- 0.0------------
1999-07-16 16.6 21.4 11.6 10.3 71.0- 4.7 3.3---- 0.5------------
1999-07-15 18.2 20.9 14.6 14.4 73.8- 5.0 4.3---- 0.0------------
1999-07-14 20.9 26.8 17.4 17.1 78.5- 7.0 3.7---- 0.5------------
1999-07-13 20.8 26.6 15.1 14.4 76.8- 6.3 1.3---- 13.8------------
1999-07-12 21.3 30.0 13.3 11.3 80.5- 4.0 2.0---- 0.8------------
1999-07-11 19.5 22.1 16.3 15.4 80.5- 5.0 3.3---- 25.8------------
1999-07-10 20.2 24.1 16.3 15.9 74.5- 8.0 4.0---- 0.0------------
1999-07-09 18.2 20.5 15.4 15.5 85.3- 7.0 2.3---- 0.1------------
1999-07-08 16.9 19.4 15.6 15.5 85.8- 8.0 3.3---- 1.3------------
1999-07-07 22.2 28.3 18.7 17.4 83.5- 5.7 3.0---- 37.3------------
1999-07-06 25.2 31.8 18.4 17.6 66.5- 2.3 0.7---- 0.0------------
1999-07-05 24.1 31.0 17.7 16.5 74.3- 1.7 2.7---- 0.0------------
1999-07-04 21.5 31.7 13.3 12.8 66.5- 0.7 0.0---- 0.0------------
1999-07-03 19.9 25.5 14.3 13.8 72.8- 2.0 1.3---- 0.0------------
1999-07-02 18.4 25.4 12.4 10.5 77.0- 5.0 1.7---- 0.0------------
1999-07-01 18.8 24.8 12.5 12.4 74.0- 3.0 1.3---- 2.0------------
1999-06-30 20.7 27.1 13.8 11.4 68.3- 2.7 0.3---- 0.0------------
1999-06-29 19.2 24.5 13.3 12.8 67.3- 4.0 1.7---- 0.0------------
1999-06-28 19.2 27.1 11.8 8.7 76.0- 5.3 1.3---- 6.3------------
1999-06-27 19.3 29.6 8.8 7.6 64.5- 2.3 1.3---- 0.0------------
1999-06-26 14.7 22.6 6.4 3.6 72.5- 5.0 0.3---- 0.0------------
1999-06-25 12.9 18.2 4.1 3.6 77.5- 5.0 2.3---- 0.6------------
1999-06-24 12.7 17.6 7.5 5.1 74.8- 6.0 1.7---- 0.0------------
1999-06-23 11.1 14.5 7.9 7.3 84.8- 7.3 3.3---- 1.7------------
1999-06-22 11.0 17.4 8.5 7.9 84.8- 8.0 9.0---- 34.3------------
1999-06-21 17.1 22.4 11.3 11.2 77.0- 6.0 4.0---- 32.2------------
1999-06-20 17.8 23.1 12.3 8.9 78.3- 6.7 2.0---- 0.0------------
1999-06-19 14.5 17.0 11.8 11.8 87.0- 8.0 1.7---- 0.0------------
1999-06-18 16.5 19.9 14.5 14.5 86.5- 8.0 2.0---- 14.9------------
1999-06-17 18.5 21.3 15.9 15.9 85.3- 8.0 2.0---- 7.2------------
1999-06-16 15.5 18.4 11.8 11.8 85.3- 7.7 2.0---- 0.0------------
515.3 ms

 

Źródłem pochodzenia danych jest Instytut Meteorologii i Gospodarki Wodnej – Państwowy Instytut Badawczy. Dane Instytutu Meteorologii i Gospodarki Wodnej – Państwowego Instytutu Badawczego zostały przetworzone.

Dane źródłowe można odnaleźć na stronie https://dane.imgw.pl